sensor_id;sensor_type;location;lat;lon;timestamp;pressure;altitude;pressure_sealevel;temperature;humidity
41062;BME280;26812;42.662;23.352;2022-08-27T00:01:13;94562.44;;;20.14;63.57
41062;BME280;26812;42.662;23.352;2022-08-27T00:03:42;94558.91;;;20.07;63.81
41062;BME280;26812;42.662;23.352;2022-08-27T00:06:10;94531.03;;;19.73;64.49
41062;BME280;26812;42.662;23.352;2022-08-27T00:08:35;94558.81;;;19.85;65.07
41062;BME280;26812;42.662;23.352;2022-08-27T00:11:01;94554.13;;;19.90;64.77
41062;BME280;26812;42.662;23.352;2022-08-27T00:13:26;94537.31;;;19.84;64.74
41062;BME280;26812;42.662;23.352;2022-08-27T00:15:51;94557.69;;;19.90;64.87
41062;BME280;26812;42.662;23.352;2022-08-27T00:18:17;94554.94;;;19.90;64.46
41062;BME280;26812;42.662;23.352;2022-08-27T00:20:43;94554.13;;;19.82;65.04
41062;BME280;26812;42.662;23.352;2022-08-27T00:23:08;94538.09;;;19.84;65.03
41062;BME280;26812;42.662;23.352;2022-08-27T00:25:33;94539.69;;;19.89;64.40
41062;BME280;26812;42.662;23.352;2022-08-27T00:27:59;94552.53;;;19.78;64.28
41062;BME280;26812;42.662;23.352;2022-08-27T00:30:24;94541.94;;;19.62;65.30
41062;BME280;26812;42.662;23.352;2022-08-27T00:32:50;94538.38;;;19.58;65.18
41062;BME280;26812;42.662;23.352;2022-08-27T00:35:16;94545.47;;;19.70;65.39
41062;BME280;26812;42.662;23.352;2022-08-27T00:37:43;94539.63;;;19.75;65.20
41062;BME280;26812;42.662;23.352;2022-08-27T00:40:14;94545.88;;;19.75;65.22
41062;BME280;26812;42.662;23.352;2022-08-27T00:42:39;94541.97;;;19.73;64.96
41062;BME280;26812;42.662;23.352;2022-08-27T00:45:07;94537.28;;;19.73;65.28
41062;BME280;26812;42.662;23.352;2022-08-27T00:47:34;94545.09;;;19.75;65.41
41062;BME280;26812;42.662;23.352;2022-08-27T00:50:08;94541.19;;;19.69;65.67
41062;BME280;26812;42.662;23.352;2022-08-27T00:52:55;94550.16;;;19.66;65.70
41062;BME280;26812;42.662;23.352;2022-08-27T00:55:26;94550.50;;;19.61;65.72
41062;BME280;26812;42.662;23.352;2022-08-27T00:58:01;94520.31;;;19.43;65.10
41062;BME280;26812;42.662;23.352;2022-08-27T01:00:27;94543.44;;;19.56;65.25
41062;BME280;26812;42.662;23.352;2022-08-27T01:02:52;94550.16;;;19.66;65.22
41062;BME280;26812;42.662;23.352;2022-08-27T01:05:21;94543.47;;;19.60;65.31
41062;BME280;26812;42.662;23.352;2022-08-27T01:07:53;94541.94;;;19.66;65.50
41062;BME280;26812;42.662;23.352;2022-08-27T01:10:22;94538.81;;;19.60;65.97
41062;BME280;26812;42.662;23.352;2022-08-27T01:12:49;94542.72;;;19.63;65.85
41062;BME280;26812;42.662;23.352;2022-08-27T01:15:28;94550.94;;;19.66;65.72
41062;BME280;26812;42.662;23.352;2022-08-27T01:17:56;94535.34;;;19.77;65.79
41062;BME280;26812;42.662;23.352;2022-08-27T01:20:40;94540.81;;;19.74;65.80
41062;BME280;26812;42.662;23.352;2022-08-27T01:25:43;94533.38;;;19.67;65.98
41062;BME280;26812;42.662;23.352;2022-08-27T01:28:09;94543.91;;;19.69;66.01
41062;BME280;26812;42.662;23.352;2022-08-27T01:30:35;94544.31;;;19.74;66.06
41062;BME280;26812;42.662;23.352;2022-08-27T01:33:11;94531.03;;;19.69;65.71
41062;BME280;26812;42.662;23.352;2022-08-27T01:35:39;94550.56;;;19.71;66.12
41062;BME280;26812;42.662;23.352;2022-08-27T01:38:05;94549.38;;;19.65;66.27
41062;BME280;26812;42.662;23.352;2022-08-27T01:40:31;94543.06;;;19.58;66.47
41062;BME280;26812;42.662;23.352;2022-08-27T01:42:56;94541.00;;;19.44;66.93
41062;BME280;26812;42.662;23.352;2022-08-27T01:45:29;94545.31;;;19.45;66.94
41062;BME280;26812;42.662;23.352;2022-08-27T01:47:56;94549.56;;;19.39;67.11
41062;BME280;26812;42.662;23.352;2022-08-27T01:50:25;94549.19;;;19.37;66.86
41062;BME280;26812;42.662;23.352;2022-08-27T01:52:51;94537.78;;;19.28;67.28
41062;BME280;26812;42.662;23.352;2022-08-27T01:55:21;94543.34;;;19.38;67.25
41062;BME280;26812;42.662;23.352;2022-08-27T01:57:47;94546.44;;;19.33;67.62
41062;BME280;26812;42.662;23.352;2022-08-27T02:00:22;94554.16;;;19.24;68.05
41062;BME280;26812;42.662;23.352;2022-08-27T02:02:48;94553.38;;;19.27;67.62
41062;BME280;26812;42.662;23.352;2022-08-27T02:05:14;94539.31;;;19.21;67.58
41062;BME280;26812;42.662;23.352;2022-08-27T02:07:40;94552.28;;;19.35;67.35
41062;BME280;26812;42.662;23.352;2022-08-27T02:10:09;94554.28;;;19.45;67.23
41062;BME280;26812;42.662;23.352;2022-08-27T02:12:36;94554.28;;;19.45;66.88
41062;BME280;26812;42.662;23.352;2022-08-27T02:15:03;94558.53;;;19.36;66.95
41062;BME280;26812;42.662;23.352;2022-08-27T02:17:29;94553.81;;;19.29;66.59
41062;BME280;26812;42.662;23.352;2022-08-27T02:19:54;94558.91;;;19.34;66.61
41062;BME280;26812;42.662;23.352;2022-08-27T02:22:21;94550.31;;;19.32;66.47
41062;BME280;26812;42.662;23.352;2022-08-27T02:24:46;94548.00;;;19.34;66.28
41062;BME280;26812;42.662;23.352;2022-08-27T02:27:12;94552.66;;;19.30;65.97
41062;BME280;26812;42.662;23.352;2022-08-27T02:29:38;94563.97;;;19.29;66.06
41062;BME280;26812;42.662;23.352;2022-08-27T02:32:04;94566.69;;;19.29;65.48
41062;BME280;26812;42.662;23.352;2022-08-27T02:34:29;94562.72;;;19.22;65.74
41062;BME280;26812;42.662;23.352;2022-08-27T02:36:55;94566.19;;;19.16;65.77
41062;BME280;26812;42.662;23.352;2022-08-27T02:39:21;94575.56;;;19.15;65.69
41062;BME280;26812;42.662;23.352;2022-08-27T02:41:46;94573.59;;;19.15;65.66
41062;BME280;26812;42.662;23.352;2022-08-27T02:44:12;94570.00;;;19.01;65.71
41062;BME280;26812;42.662;23.352;2022-08-27T02:46:38;94563.28;;;18.95;65.31
41062;BME280;26812;42.662;23.352;2022-08-27T02:49:04;94575.53;;;19.11;65.35
41062;BME280;26812;42.662;23.352;2022-08-27T02:51:29;94557.50;;;19.00;65.10
41062;BME280;26812;42.662;23.352;2022-08-27T02:53:55;94573.72;;;18.82;66.00
41062;BME280;26812;42.662;23.352;2022-08-27T02:56:21;94583.41;;;18.72;66.73
41062;BME280;26812;42.662;23.352;2022-08-27T02:58:47;94565.91;;;18.77;66.69
41062;BME280;26812;42.662;23.352;2022-08-27T03:01:12;94577.69;;;18.88;66.70
41062;BME280;26812;42.662;23.352;2022-08-27T03:03:37;94574.19;;;18.91;66.68
41062;BME280;26812;42.662;23.352;2022-08-27T03:06:03;94572.94;;;18.81;66.41
41062;BME280;26812;42.662;23.352;2022-08-27T03:08:28;94581.94;;;18.85;66.60
41062;BME280;26812;42.662;23.352;2022-08-27T03:10:55;94583.91;;;18.85;66.52
41062;BME280;26812;42.662;23.352;2022-08-27T03:13:21;94571.41;;;18.84;66.16
41062;BME280;26812;42.662;23.352;2022-08-27T03:15:47;94589.06;;;18.97;66.10
41062;BME280;26812;42.662;23.352;2022-08-27T03:18:13;94578.47;;;18.88;66.50
41062;BME280;26812;42.662;23.352;2022-08-27T03:20:50;94587.06;;;18.94;66.64
41062;BME280;26812;42.662;23.352;2022-08-27T03:23:17;94574.50;;;18.82;66.77
41062;BME280;26812;42.662;23.352;2022-08-27T03:25:52;94589.38;;;18.88;66.81
41062;BME280;26812;42.662;23.352;2022-08-27T03:28:24;94587.47;;;18.92;66.63
41062;BME280;26812;42.662;23.352;2022-08-27T03:30:52;94599.94;;;18.93;66.87
41062;BME280;26812;42.662;23.352;2022-08-27T03:33:18;94597.53;;;18.85;67.28
41062;BME280;26812;42.662;23.352;2022-08-27T03:35:45;94606.09;;;18.83;67.25
41062;BME280;26812;42.662;23.352;2022-08-27T03:38:11;94594.34;;;18.76;67.21
41062;BME280;26812;42.662;23.352;2022-08-27T03:40:37;94580.19;;;18.63;67.38
41062;BME280;26812;42.662;23.352;2022-08-27T03:43:02;94604.50;;;18.79;67.19
41062;BME280;26812;42.662;23.352;2022-08-27T03:45:28;94573.16;;;18.62;67.20
41062;BME280;26812;42.662;23.352;2022-08-27T03:47:53;94583.81;;;18.74;67.38
41062;BME280;26812;42.662;23.352;2022-08-27T03:50:19;94603.78;;;18.85;67.45
41062;BME280;26812;42.662;23.352;2022-08-27T03:52:45;94608.34;;;18.71;68.10
41062;BME280;26812;42.662;23.352;2022-08-27T03:55:11;94593.84;;;18.67;67.46
41062;BME280;26812;42.662;23.352;2022-08-27T03:57:37;94598.38;;;18.52;68.36
41062;BME280;26812;42.662;23.352;2022-08-27T04:00:05;94613.91;;;18.48;68.45
41062;BME280;26812;42.662;23.352;2022-08-27T04:02:31;94614.31;;;18.50;68.51
41062;BME280;26812;42.662;23.352;2022-08-27T04:04:57;94619.81;;;18.53;68.62
41062;BME280;26812;42.662;23.352;2022-08-27T04:07:22;94625.66;;;18.52;68.59
41062;BME280;26812;42.662;23.352;2022-08-27T04:09:48;94613.97;;;18.55;68.42
41062;BME280;26812;42.662;23.352;2022-08-27T04:12:13;94608.06;;;18.46;68.34
41062;BME280;26812;42.662;23.352;2022-08-27T04:14:45;94622.88;;;18.48;68.61
41062;BME280;26812;42.662;23.352;2022-08-27T04:17:10;94615.50;;;18.49;68.74
41062;BME280;26812;42.662;23.352;2022-08-27T04:19:35;94614.81;;;18.59;68.86
41062;BME280;26812;42.662;23.352;2022-08-27T04:22:03;94633.97;;;18.63;68.88
41062;BME280;26812;42.662;23.352;2022-08-27T04:24:31;94631.22;;;18.63;68.81
41062;BME280;26812;42.662;23.352;2022-08-27T04:26:59;94625.41;;;18.64;68.42
41062;BME280;26812;42.662;23.352;2022-08-27T04:29:24;94615.59;;;18.59;68.75
41062;BME280;26812;42.662;23.352;2022-08-27T04:31:50;94616.47;;;18.67;68.56
41062;BME280;26812;42.662;23.352;2022-08-27T04:34:16;94627.06;;;18.72;68.66
41062;BME280;26812;42.662;23.352;2022-08-27T04:36:41;94634.09;;;18.73;68.81
41062;BME280;26812;42.662;23.352;2022-08-27T04:39:07;94633.78;;;18.82;68.27
41062;BME280;26812;42.662;23.352;2022-08-27T04:41:32;94620.47;;;18.77;68.22
41062;BME280;26812;42.662;23.352;2022-08-27T04:44:06;94628.69;;;18.80;68.02
41062;BME280;26812;42.662;23.352;2022-08-27T04:46:34;94625.16;;;18.76;68.30
41062;BME280;26812;42.662;23.352;2022-08-27T04:49:04;94626.69;;;18.74;68.38
41062;BME280;26812;42.662;23.352;2022-08-27T04:51:30;94621.66;;;18.79;67.73
41062;BME280;26812;42.662;23.352;2022-08-27T04:53:56;94623.63;;;18.82;67.92
41062;BME280;26812;42.662;23.352;2022-08-27T04:56:22;94633.16;;;18.99;67.49
41062;BME280;26812;42.662;23.352;2022-08-27T04:58:50;94627.38;;;19.08;67.36
41062;BME280;26812;42.662;23.352;2022-08-27T05:01:18;94625.47;;;19.12;67.18
41062;BME280;26812;42.662;23.352;2022-08-27T05:03:44;94635.28;;;19.20;66.37
41062;BME280;26812;42.662;23.352;2022-08-27T05:06:09;94632.94;;;19.22;66.47
41062;BME280;26812;42.662;23.352;2022-08-27T05:08:37;94636.06;;;19.24;64.21
41062;BME280;26812;42.662;23.352;2022-08-27T05:11:06;94647.50;;;19.37;64.19
41062;BME280;26812;42.662;23.352;2022-08-27T05:13:31;94629.91;;;19.31;65.15
41062;BME280;26812;42.662;23.352;2022-08-27T05:16:04;94642.13;;;19.47;65.09
41062;BME280;26812;42.662;23.352;2022-08-27T05:18:30;94642.63;;;19.60;64.38
41062;BME280;26812;42.662;23.352;2022-08-27T05:20:56;94646.22;;;19.71;62.80
41062;BME280;26812;42.662;23.352;2022-08-27T05:23:23;94648.59;;;19.80;62.01
41062;BME280;26812;42.662;23.352;2022-08-27T05:25:50;94632.59;;;19.82;60.90
41062;BME280;26812;42.662;23.352;2022-08-27T05:28:18;94644.41;;;19.97;60.43
41062;BME280;26812;42.662;23.352;2022-08-27T05:30:49;94649.91;;;20.07;60.22
41062;BME280;26812;42.662;23.352;2022-08-27T05:33:17;94639.41;;;20.13;59.31
41062;BME280;26812;42.662;23.352;2022-08-27T05:35:45;94643.38;;;20.26;58.82
41062;BME280;26812;42.662;23.352;2022-08-27T05:38:12;94632.44;;;20.23;58.45
41062;BME280;26812;42.662;23.352;2022-08-27T05:40:44;94643.78;;;20.35;58.46
41062;BME280;26812;42.662;23.352;2022-08-27T05:43:13;94652.91;;;20.64;57.15
41062;BME280;26812;42.662;23.352;2022-08-27T05:45:41;94650.59;;;20.81;56.67
41062;BME280;26812;42.662;23.352;2022-08-27T05:48:07;94643.97;;;20.82;56.92
41062;BME280;26812;42.662;23.352;2022-08-27T05:50:34;94655.31;;;20.98;56.81
41062;BME280;26812;42.662;23.352;2022-08-27T05:52:59;94642.03;;;21.03;56.49
41062;BME280;26812;42.662;23.352;2022-08-27T05:55:25;94643.19;;;21.09;56.33
41062;BME280;26812;42.662;23.352;2022-08-27T05:57:50;94638.91;;;21.12;56.29
41062;BME280;26812;42.662;23.352;2022-08-27T06:00:16;94645.94;;;21.06;55.81
41062;BME280;26812;42.662;23.352;2022-08-27T06:03:00;94651.47;;;21.27;56.60
41062;BME280;26812;42.662;23.352;2022-08-27T06:05:25;94608.00;;;21.04;56.71
41062;BME280;26812;42.662;23.352;2022-08-27T06:07:50;94648.34;;;21.43;56.07
41062;BME280;26812;42.662;23.352;2022-08-27T06:10:16;94655.00;;;21.53;56.03
41062;BME280;26812;42.662;23.352;2022-08-27T06:12:41;94657.72;;;21.60;55.48
41062;BME280;26812;42.662;23.352;2022-08-27T06:15:07;94653.41;;;21.59;55.47
41062;BME280;26812;42.662;23.352;2022-08-27T06:17:33;94665.16;;;21.77;54.78
41062;BME280;26812;42.662;23.352;2022-08-27T06:19:58;94669.81;;;21.91;55.13
41062;BME280;26812;42.662;23.352;2022-08-27T06:22:24;94666.69;;;21.89;53.73
41062;BME280;26812;42.662;23.352;2022-08-27T06:24:49;94659.28;;;21.75;55.06
41062;BME280;26812;42.662;23.352;2022-08-27T06:27:17;94661.59;;;21.87;54.37
41062;BME280;26812;42.662;23.352;2022-08-27T06:29:43;94659.63;;;21.91;54.24
41062;BME280;26812;42.662;23.352;2022-08-27T06:32:09;94673.38;;;22.06;53.93
41062;BME280;26812;42.662;23.352;2022-08-27T06:34:36;94667.84;;;22.13;53.54
41062;BME280;26812;42.662;23.352;2022-08-27T06:37:02;94670.97;;;21.97;53.72
41062;BME280;26812;42.662;23.352;2022-08-27T06:39:29;94664.75;;;21.72;53.18
41062;BME280;26812;42.662;23.352;2022-08-27T06:41:54;94661.63;;;21.59;53.77
41062;BME280;26812;42.662;23.352;2022-08-27T06:44:20;94672.22;;;21.57;54.37
41062;BME280;26812;42.662;23.352;2022-08-27T06:46:46;94661.25;;;21.50;54.49
41062;BME280;26812;42.662;23.352;2022-08-27T06:49:12;94663.56;;;21.69;54.97
41062;BME280;26812;42.662;23.352;2022-08-27T06:51:38;94672.94;;;22.00;54.99
41062;BME280;26812;42.662;23.352;2022-08-27T06:54:07;94660.38;;;22.20;54.40
41062;BME280;26812;42.662;23.352;2022-08-27T06:56:33;94654.03;;;22.41;53.86
41062;BME280;26812;42.662;23.352;2022-08-27T06:59:01;94665.69;;;22.63;53.48
41062;BME280;26812;42.662;23.352;2022-08-27T07:01:38;94667.56;;;22.80;52.11
41062;BME280;26812;42.662;23.352;2022-08-27T07:04:07;94667.97;;;22.79;51.89
41062;BME280;26812;42.662;23.352;2022-08-27T07:06:35;94673.72;;;23.09;49.92
41062;BME280;26812;42.662;23.352;2022-08-27T07:09:02;94644.91;;;22.66;51.16
41062;BME280;26812;42.662;23.352;2022-08-27T07:11:28;94663.56;;;23.03;51.18
41062;BME280;26812;42.662;23.352;2022-08-27T07:13:56;94672.91;;;23.12;50.62
41062;BME280;26812;42.662;23.352;2022-08-27T07:16:23;94660.63;;;23.24;51.59
41062;BME280;26812;42.662;23.352;2022-08-27T07:18:51;94656.22;;;23.37;51.25
41062;BME280;26812;42.662;23.352;2022-08-27T07:21:18;94660.00;;;23.54;49.88
41062;BME280;26812;42.662;23.352;2022-08-27T07:23:49;94621.91;;;23.56;50.08
41062;BME280;26812;42.662;23.352;2022-08-27T07:26:16;94646.78;;;23.87;49.09
41062;BME280;26812;42.662;23.352;2022-08-27T07:28:43;94649.94;;;23.89;48.86
41062;BME280;26812;42.662;23.352;2022-08-27T07:31:11;94664.19;;;24.14;49.21
41062;BME280;26812;42.662;23.352;2022-08-27T07:33:38;94662.47;;;24.31;48.62
41062;BME280;26812;42.662;23.352;2022-08-27T07:36:05;94657.03;;;24.24;47.54
41062;BME280;26812;42.662;23.352;2022-08-27T07:38:31;94666.97;;;24.48;47.52
41062;BME280;26812;42.662;23.352;2022-08-27T07:40:57;94668.34;;;24.67;47.42
41062;BME280;26812;42.662;23.352;2022-08-27T07:43:22;94667.34;;;24.84;47.05
41062;BME280;26812;42.662;23.352;2022-08-27T07:46:06;94664.75;;;25.00;46.72
41062;BME280;26812;42.662;23.352;2022-08-27T07:48:32;94660.97;;;25.18;46.31
41062;BME280;26812;42.662;23.352;2022-08-27T07:50:58;94666.53;;;25.41;44.91
41062;BME280;26812;42.662;23.352;2022-08-27T07:53:24;94674.50;;;25.59;45.37
41062;BME280;26812;42.662;23.352;2022-08-27T07:55:49;94667.63;;;25.71;44.17
41062;BME280;26812;42.662;23.352;2022-08-27T07:58:15;94676.84;;;25.60;44.17
41062;BME280;26812;42.662;23.352;2022-08-27T08:00:42;94670.31;;;25.51;44.60
41062;BME280;26812;42.662;23.352;2022-08-27T08:03:09;94666.97;;;25.63;44.79
41062;BME280;26812;42.662;23.352;2022-08-27T08:05:35;94666.56;;;25.88;44.11
41062;BME280;26812;42.662;23.352;2022-08-27T08:08:04;94666.50;;;25.91;44.31
41062;BME280;26812;42.662;23.352;2022-08-27T08:10:30;94669.31;;;26.11;44.16
41062;BME280;26812;42.662;23.352;2022-08-27T08:12:55;94669.09;;;26.22;42.60
41062;BME280;26812;42.662;23.352;2022-08-27T08:15:20;94674.91;;;26.27;42.13
41062;BME280;26812;42.662;23.352;2022-08-27T08:17:46;94663.03;;;26.30;43.17
41062;BME280;26812;42.662;23.352;2022-08-27T08:20:12;94664.50;;;26.39;42.50
41062;BME280;26812;42.662;23.352;2022-08-27T08:22:40;94657.91;;;26.52;42.36
41062;BME280;26812;42.662;23.352;2022-08-27T08:25:08;94652.94;;;26.64;42.07
41062;BME280;26812;42.662;23.352;2022-08-27T08:27:34;94645.22;;;26.75;41.70
41062;BME280;26812;42.662;23.352;2022-08-27T08:30:00;94656.38;;;26.87;40.50
41062;BME280;26812;42.662;23.352;2022-08-27T08:32:25;94658.69;;;26.89;40.38
41062;BME280;26812;42.662;23.352;2022-08-27T08:34:51;94652.91;;;27.03;41.33
41062;BME280;26812;42.662;23.352;2022-08-27T08:37:17;94651.28;;;27.22;40.03
41062;BME280;26812;42.662;23.352;2022-08-27T08:39:42;94647.69;;;27.25;40.29
41062;BME280;26812;42.662;23.352;2022-08-27T08:42:23;94651.22;;;27.42;40.29
41062;BME280;26812;42.662;23.352;2022-08-27T08:44:51;94658.69;;;27.61;39.72
41062;BME280;26812;42.662;23.352;2022-08-27T08:47:18;94662.75;;;27.73;39.23
41062;BME280;26812;42.662;23.352;2022-08-27T08:58:23;94648.69;;;28.12;38.97
41062;BME280;26812;42.662;23.352;2022-08-27T09:00:58;94642.25;;;28.15;38.57
41062;BME280;26812;42.662;23.352;2022-08-27T09:03:25;94643.84;;;28.17;37.39
41062;BME280;26812;42.662;23.352;2022-08-27T09:06:01;94644.34;;;28.28;37.33
41062;BME280;26812;42.662;23.352;2022-08-27T09:08:41;94643.28;;;28.38;37.67
41062;BME280;26812;42.662;23.352;2022-08-27T09:11:33;94647.50;;;28.42;36.33
41062;BME280;26812;42.662;23.352;2022-08-27T09:14:49;94650.88;;;28.50;36.47
41062;BME280;26812;42.662;23.352;2022-08-27T09:16:49;94645.38;;;28.75;35.98
41062;BME280;26812;42.662;23.352;2022-08-27T09:19:14;94634.47;;;28.85;35.94
41062;BME280;26812;42.662;23.352;2022-08-27T09:26:46;94634.25;;;29.04;35.30
41062;BME280;26812;42.662;23.352;2022-08-27T09:29:15;94632.72;;;29.16;35.10
41062;BME280;26812;42.662;23.352;2022-08-27T09:34:20;94628.03;;;29.38;34.03
41062;BME280;26812;42.662;23.352;2022-08-27T09:36:53;94630.47;;;29.36;33.67
41062;BME280;26812;42.662;23.352;2022-08-27T09:39:28;94626.63;;;29.47;33.50
41062;BME280;26812;42.662;23.352;2022-08-27T09:41:56;94625.38;;;29.73;34.11
41062;BME280;26812;42.662;23.352;2022-08-27T09:44:22;94626.50;;;29.97;34.06
41062;BME280;26812;42.662;23.352;2022-08-27T09:47:01;94611.84;;;30.10;34.85
41062;BME280;26812;42.662;23.352;2022-08-27T09:49:29;94627.56;;;30.25;33.20
41062;BME280;26812;42.662;23.352;2022-08-27T09:51:56;94624.03;;;30.47;32.25
41062;BME280;26812;42.662;23.352;2022-08-27T09:54:43;94624.34;;;30.49;31.12
41062;BME280;26812;42.662;23.352;2022-08-27T09:57:11;94625.94;;;30.59;31.32
41062;BME280;26812;42.662;23.352;2022-08-27T09:59:42;94619.25;;;30.69;30.49
41062;BME280;26812;42.662;23.352;2022-08-27T10:02:20;94622.91;;;30.88;30.15
41062;BME280;26812;42.662;23.352;2022-08-27T10:04:51;94619.00;;;31.07;29.67
41062;BME280;26812;42.662;23.352;2022-08-27T10:07:39;94623.72;;;31.19;29.30
41062;BME280;26812;42.662;23.352;2022-08-27T10:12:58;94612.19;;;31.30;30.16
41062;BME280;26812;42.662;23.352;2022-08-27T10:15:32;94622.84;;;31.32;30.52
41062;BME280;26812;42.662;23.352;2022-08-27T10:31:46;94622.22;;;30.97;26.18
41062;BME280;26812;42.662;23.352;2022-08-27T10:34:29;94609.47;;;30.86;25.70
41062;BME280;26812;42.662;23.352;2022-08-27T10:37:04;94619.63;;;31.11;27.13
41062;BME280;26812;42.662;23.352;2022-08-27T10:53:21;94624.66;;;31.57;25.90
41062;BME280;26812;42.662;23.352;2022-08-27T10:55:57;94615.97;;;31.55;26.79
41062;BME280;26812;42.662;23.352;2022-08-27T10:58:46;94618.41;;;31.52;26.32
41062;BME280;26812;42.662;23.352;2022-08-27T11:04:07;94612.28;;;31.58;25.95
41062;BME280;26812;42.662;23.352;2022-08-27T11:06:57;94602.38;;;31.66;26.23
41062;BME280;26812;42.662;23.352;2022-08-27T11:09:34;94605.69;;;31.83;26.11
41062;BME280;26812;42.662;23.352;2022-08-27T11:12:05;94607.69;;;31.82;25.65
41062;BME280;26812;42.662;23.352;2022-08-27T11:14:35;94600.75;;;31.96;24.61
41062;BME280;26812;42.662;23.352;2022-08-27T11:17:31;94600.13;;;32.10;24.84
41062;BME280;26812;42.662;23.352;2022-08-27T11:27:44;94600.94;;;31.52;24.06
41062;BME280;26812;42.662;23.352;2022-08-27T11:30:21;94591.69;;;31.55;23.90
41062;BME280;26812;42.662;23.352;2022-08-27T11:33:07;94585.34;;;31.55;24.12
41062;BME280;26812;42.662;23.352;2022-08-27T11:43:52;94576.31;;;32.09;24.61
41062;BME280;26812;42.662;23.352;2022-08-27T11:46:24;94572.44;;;32.34;23.77
41062;BME280;26812;42.662;23.352;2022-08-27T11:49:02;94573.66;;;32.60;23.78
41062;BME280;26812;42.662;23.352;2022-08-27T11:51:33;94571.78;;;32.66;24.25
41062;BME280;26812;42.662;23.352;2022-08-27T11:54:03;94563.88;;;32.65;24.78
41062;BME280;26812;42.662;23.352;2022-08-27T11:56:41;94570.56;;;32.58;23.72
41062;BME280;26812;42.662;23.352;2022-08-27T12:01:35;94565.63;;;32.53;21.61
41062;BME280;26812;42.662;23.352;2022-08-27T12:12:56;94547.66;;;32.54;22.24
41062;BME280;26812;42.662;23.352;2022-08-27T12:24:13;94540.38;;;32.48;20.79
41062;BME280;26812;42.662;23.352;2022-08-27T12:27:12;94540.16;;;32.69;20.82
41062;BME280;26812;42.662;23.352;2022-08-27T12:35:30;94541.16;;;33.09;20.98
41062;BME280;26812;42.662;23.352;2022-08-27T12:40:53;94537.44;;;32.42;22.37
41062;BME280;26812;42.662;23.352;2022-08-27T12:45:50;94527.25;;;32.30;21.45
41062;BME280;26812;42.662;23.352;2022-08-27T12:48:22;94534.34;;;32.03;21.49
41062;BME280;26812;42.662;23.352;2022-08-27T12:51:05;94531.72;;;31.72;21.89
41062;BME280;26812;42.662;23.352;2022-08-27T12:56:24;94514.19;;;32.54;22.42
41062;BME280;26812;42.662;23.352;2022-08-27T12:59:07;94528.13;;;32.54;22.13
41062;BME280;26812;42.662;23.352;2022-08-27T13:04:26;94510.78;;;32.50;22.07
41062;BME280;26812;42.662;23.352;2022-08-27T13:06:53;94525.81;;;32.43;21.77
41062;BME280;26812;42.662;23.352;2022-08-27T13:09:44;94531.06;;;31.68;22.76
41062;BME280;26812;42.662;23.352;2022-08-27T13:12:15;94513.28;;;31.66;22.09
41062;BME280;26812;42.662;23.352;2022-08-27T13:14:41;94521.31;;;31.64;23.15
41062;BME280;26812;42.662;23.352;2022-08-27T13:17:14;94522.78;;;31.87;24.00
41062;BME280;26812;42.662;23.352;2022-08-27T13:19:45;94514.56;;;32.01;23.76
41062;BME280;26812;42.662;23.352;2022-08-27T13:24:52;94508.47;;;32.49;23.50
41062;BME280;26812;42.662;23.352;2022-08-27T13:27:33;94513.38;;;32.63;24.24
41062;BME280;26812;42.662;23.352;2022-08-27T13:30:10;94507.00;;;32.81;23.35
41062;BME280;26812;42.662;23.352;2022-08-27T13:32:37;94514.59;;;32.80;23.27
41062;BME280;26812;42.662;23.352;2022-08-27T13:35:03;94500.66;;;32.71;23.56
41062;BME280;26812;42.662;23.352;2022-08-27T13:37:44;94509.94;;;32.77;23.73
41062;BME280;26812;42.662;23.352;2022-08-27T13:40:25;94501.25;;;32.84;23.48
41062;BME280;26812;42.662;23.352;2022-08-27T13:42:56;94508.03;;;32.92;23.00
41062;BME280;26812;42.662;23.352;2022-08-27T13:45:26;94500.19;;;32.82;23.55
41062;BME280;26812;42.662;23.352;2022-08-27T13:47:52;94503.69;;;32.49;24.00
41062;BME280;26812;42.662;23.352;2022-08-27T13:50:29;94498.59;;;32.20;22.74
41062;BME280;26812;42.662;23.352;2022-08-27T13:53:23;94500.16;;;31.75;22.99
41062;BME280;26812;42.662;23.352;2022-08-27T13:56:07;94500.31;;;31.99;23.07
41062;BME280;26812;42.662;23.352;2022-08-27T13:58:35;94499.53;;;31.99;23.47
41062;BME280;26812;42.662;23.352;2022-08-27T14:01:12;94501.69;;;31.67;22.39
41062;BME280;26812;42.662;23.352;2022-08-27T14:03:54;94515.88;;;31.51;23.24
41062;BME280;26812;42.662;23.352;2022-08-27T14:06:44;94517.56;;;31.30;22.79
41062;BME280;26812;42.662;23.352;2022-08-27T14:09:25;94517.88;;;31.32;22.97
41062;BME280;26812;42.662;23.352;2022-08-27T14:12:03;94506.75;;;31.41;22.60
41062;BME280;26812;42.662;23.352;2022-08-27T14:14:36;94505.41;;;31.64;23.44
41062;BME280;26812;42.662;23.352;2022-08-27T14:17:03;94504.31;;;31.62;23.14
41062;BME280;26812;42.662;23.352;2022-08-27T14:19:31;94489.63;;;31.61;23.74
41062;BME280;26812;42.662;23.352;2022-08-27T14:21:58;94497.06;;;31.73;23.92
41062;BME280;26812;42.662;23.352;2022-08-27T14:24:25;94504.81;;;31.88;23.96
41062;BME280;26812;42.662;23.352;2022-08-27T14:27:00;94481.13;;;31.83;24.25
41062;BME280;26812;42.662;23.352;2022-08-27T14:29:26;94498.91;;;31.58;22.76
41062;BME280;26812;42.662;23.352;2022-08-27T14:31:52;94516.56;;;31.73;23.84
41062;BME280;26812;42.662;23.352;2022-08-27T14:34:17;94513.94;;;31.79;23.72
41062;BME280;26812;42.662;23.352;2022-08-27T14:36:43;94527.03;;;31.69;23.04
41062;BME280;26812;42.662;23.352;2022-08-27T14:39:09;94527.34;;;31.62;23.48
41062;BME280;26812;42.662;23.352;2022-08-27T14:41:36;94525.09;;;31.20;24.08
41062;BME280;26812;42.662;23.352;2022-08-27T14:44:01;94516.16;;;31.26;23.22
41062;BME280;26812;42.662;23.352;2022-08-27T14:46:28;94521.69;;;31.16;23.13
41062;BME280;26812;42.662;23.352;2022-08-27T14:48:57;94522.53;;;30.95;24.23